Terminal Aerodrome Forecast
Issued by NWS

Home | Current Version | Previous Version | Text Only | Print | Product List | Glossary On
Versions: 1 2 3 4 5 6 7 8 9 10 11 12 13 14 15 16 17 18 19 20 21 22
000
FTUS43 KICT 240520
TAFCNU
TAF
KCNU 240520Z 2406/2506 15012G21KT 4SM +SHRA OVC008
      TEMPO 2406/2410 2SM +SHRA OVC005
     FM241000 13010KT 6SM -SHRA OVC005
     FM241400 14008KT 5SM SHRA OVC008
     FM241600 14009KT P6SM VCTS SCT020 OVC035CB
     FM241900 15009KT 3SM +TSRA OVC015CB=

USA.gov is the U.S. government's official web portal to all federal, state and local government web resources and services.